sensor_id;sensor_type;location;lat;lon;timestamp;P1;durP1;ratioP1;P2;durP2;ratioP2
56419;SDS011;42323;52.170;7.538;2023-06-04T00:00:21;2.30;;;1.40;;
56419;SDS011;42323;52.170;7.538;2023-06-04T00:02:47;2.50;;;1.30;;
56419;SDS011;42323;52.170;7.538;2023-06-04T00:05:14;3.47;;;1.40;;
56419;SDS011;42323;52.170;7.538;2023-06-04T00:07:41;2.23;;;1.20;;
56419;SDS011;42323;52.170;7.538;2023-06-04T00:10:08;2.97;;;1.40;;
56419;SDS011;42323;52.170;7.538;2023-06-04T00:12:35;2.08;;;1.40;;
56419;SDS011;42323;52.170;7.538;2023-06-04T00:15:02;2.55;;;1.70;;
56419;SDS011;42323;52.170;7.538;2023-06-04T00:17:29;2.72;;;1.30;;
56419;SDS011;42323;52.170;7.538;2023-06-04T00:19:55;2.22;;;1.23;;
56419;SDS011;42323;52.170;7.538;2023-06-04T00:22:22;2.30;;;1.50;;
56419;SDS011;42323;52.170;7.538;2023-06-04T00:24:49;2.47;;;1.60;;
56419;SDS011;42323;52.170;7.538;2023-06-04T00:27:16;2.97;;;1.63;;
56419;SDS011;42323;52.170;7.538;2023-06-04T00:29:43;4.88;;;1.60;;
56419;SDS011;42323;52.170;7.538;2023-06-04T00:32:09;2.63;;;1.40;;
56419;SDS011;42323;52.170;7.538;2023-06-04T00:34:36;2.00;;;1.30;;
56419;SDS011;42323;52.170;7.538;2023-06-04T00:37:03;2.25;;;1.20;;
56419;SDS011;42323;52.170;7.538;2023-06-04T00:39:29;3.63;;;1.40;;
56419;SDS011;42323;52.170;7.538;2023-06-04T00:41:56;3.17;;;1.45;;
56419;SDS011;42323;52.170;7.538;2023-06-04T00:44:22;1.67;;;1.30;;
56419;SDS011;42323;52.170;7.538;2023-06-04T00:46:51;2.80;;;1.40;;
56419;SDS011;42323;52.170;7.538;2023-06-04T00:49:20;2.13;;;1.50;;
56419;SDS011;42323;52.170;7.538;2023-06-04T00:51:46;4.13;;;1.35;;
56419;SDS011;42323;52.170;7.538;2023-06-04T00:54:13;2.60;;;1.40;;
56419;SDS011;42323;52.170;7.538;2023-06-04T00:56:42;2.65;;;1.20;;
56419;SDS011;42323;52.170;7.538;2023-06-04T00:59:09;3.42;;;1.80;;
56419;SDS011;42323;52.170;7.538;2023-06-04T01:01:42;3.22;;;1.95;;
56419;SDS011;42323;52.170;7.538;2023-06-04T01:04:29;5.10;;;1.97;;
56419;SDS011;42323;52.170;7.538;2023-06-04T01:07:00;3.05;;;1.75;;
56419;SDS011;42323;52.170;7.538;2023-06-04T01:09:30;2.60;;;2.10;;
56419;SDS011;42323;52.170;7.538;2023-06-04T01:11:57;3.40;;;2.40;;
56419;SDS011;42323;52.170;7.538;2023-06-04T01:14:24;3.20;;;2.03;;
56419;SDS011;42323;52.170;7.538;2023-06-04T01:16:58;2.47;;;1.70;;
56419;SDS011;42323;52.170;7.538;2023-06-04T01:22:40;2.40;;;1.85;;
56419;SDS011;42323;52.170;7.538;2023-06-04T01:25:13;2.92;;;1.92;;
56419;SDS011;42323;52.170;7.538;2023-06-04T01:27:49;4.05;;;1.70;;
56419;SDS011;42323;52.170;7.538;2023-06-04T01:30:20;2.63;;;1.63;;
56419;SDS011;42323;52.170;7.538;2023-06-04T01:32:59;3.20;;;1.70;;
56419;SDS011;42323;52.170;7.538;2023-06-04T01:35:27;2.53;;;1.40;;
56419;SDS011;42323;52.170;7.538;2023-06-04T01:37:55;2.63;;;1.40;;
56419;SDS011;42323;52.170;7.538;2023-06-04T01:40:22;2.30;;;1.30;;
56419;SDS011;42323;52.170;7.538;2023-06-04T01:42:49;2.45;;;1.50;;
56419;SDS011;42323;52.170;7.538;2023-06-04T01:45:15;3.53;;;1.50;;
56419;SDS011;42323;52.170;7.538;2023-06-04T01:47:42;3.35;;;1.40;;
56419;SDS011;42323;52.170;7.538;2023-06-04T01:50:09;3.42;;;1.45;;
56419;SDS011;42323;52.170;7.538;2023-06-04T01:52:36;2.45;;;1.50;;
56419;SDS011;42323;52.170;7.538;2023-06-04T01:55:04;2.35;;;1.50;;
56419;SDS011;42323;52.170;7.538;2023-06-04T01:57:31;2.13;;;1.40;;
56419;SDS011;42323;52.170;7.538;2023-06-04T01:59:58;3.30;;;1.60;;
56419;SDS011;42323;52.170;7.538;2023-06-04T02:02:25;2.78;;;1.52;;
56419;SDS011;42323;52.170;7.538;2023-06-04T02:04:52;2.67;;;1.50;;
56419;SDS011;42323;52.170;7.538;2023-06-04T02:07:19;2.28;;;1.60;;
56419;SDS011;42323;52.170;7.538;2023-06-04T02:09:49;2.33;;;1.70;;
56419;SDS011;42323;52.170;7.538;2023-06-04T02:12:16;2.97;;;1.47;;
56419;SDS011;42323;52.170;7.538;2023-06-04T02:14:42;2.30;;;1.40;;
56419;SDS011;42323;52.170;7.538;2023-06-04T02:17:11;2.65;;;1.52;;
56419;SDS011;42323;52.170;7.538;2023-06-04T02:19:42;2.40;;;1.40;;
56419;SDS011;42323;52.170;7.538;2023-06-04T02:22:19;2.63;;;1.52;;
56419;SDS011;42323;52.170;7.538;2023-06-04T02:24:46;2.20;;;1.70;;
56419;SDS011;42323;52.170;7.538;2023-06-04T02:27:14;3.10;;;1.70;;
56419;SDS011;42323;52.170;7.538;2023-06-04T02:29:41;2.03;;;1.42;;
56419;SDS011;42323;52.170;7.538;2023-06-04T02:32:08;1.63;;;1.40;;
56419;SDS011;42323;52.170;7.538;2023-06-04T02:34:35;3.07;;;1.70;;
56419;SDS011;42323;52.170;7.538;2023-06-04T02:37:02;2.22;;;1.63;;
56419;SDS011;42323;52.170;7.538;2023-06-04T02:39:29;3.33;;;1.67;;
56419;SDS011;42323;52.170;7.538;2023-06-04T02:41:55;3.07;;;1.60;;
56419;SDS011;42323;52.170;7.538;2023-06-04T02:44:22;3.60;;;1.65;;
56419;SDS011;42323;52.170;7.538;2023-06-04T02:46:50;2.28;;;1.50;;
56419;SDS011;42323;52.170;7.538;2023-06-04T02:49:17;3.40;;;1.60;;
56419;SDS011;42323;52.170;7.538;2023-06-04T02:51:44;2.92;;;1.60;;
56419;SDS011;42323;52.170;7.538;2023-06-04T02:54:11;2.88;;;1.60;;
56419;SDS011;42323;52.170;7.538;2023-06-04T02:56:38;3.38;;;1.80;;
56419;SDS011;42323;52.170;7.538;2023-06-04T02:59:06;2.50;;;1.70;;
56419;SDS011;42323;52.170;7.538;2023-06-04T03:01:36;3.35;;;1.83;;
56419;SDS011;42323;52.170;7.538;2023-06-04T03:04:03;2.70;;;1.63;;
56419;SDS011;42323;52.170;7.538;2023-06-04T03:06:31;2.85;;;1.70;;
56419;SDS011;42323;52.170;7.538;2023-06-04T03:09:00;3.28;;;1.80;;
56419;SDS011;42323;52.170;7.538;2023-06-04T03:11:28;4.00;;;2.05;;
56419;SDS011;42323;52.170;7.538;2023-06-04T03:13:54;1.92;;;1.70;;
56419;SDS011;42323;52.170;7.538;2023-06-04T03:16:21;3.13;;;1.88;;
56419;SDS011;42323;52.170;7.538;2023-06-04T03:18:48;3.08;;;1.85;;
56419;SDS011;42323;52.170;7.538;2023-06-04T03:21:14;3.20;;;1.80;;
56419;SDS011;42323;52.170;7.538;2023-06-04T03:23:41;3.17;;;1.60;;
56419;SDS011;42323;52.170;7.538;2023-06-04T03:26:07;4.05;;;2.20;;
56419;SDS011;42323;52.170;7.538;2023-06-04T03:28:34;3.50;;;2.20;;
56419;SDS011;42323;52.170;7.538;2023-06-04T03:31:01;2.40;;;1.83;;
56419;SDS011;42323;52.170;7.538;2023-06-04T03:33:28;3.67;;;2.00;;
56419;SDS011;42323;52.170;7.538;2023-06-04T03:35:55;3.00;;;2.10;;
56419;SDS011;42323;52.170;7.538;2023-06-04T03:38:25;3.55;;;2.30;;
56419;SDS011;42323;52.170;7.538;2023-06-04T03:40:52;4.03;;;1.90;;
56419;SDS011;42323;52.170;7.538;2023-06-04T03:43:21;2.97;;;2.00;;
56419;SDS011;42323;52.170;7.538;2023-06-04T03:45:48;3.53;;;2.00;;
56419;SDS011;42323;52.170;7.538;2023-06-04T03:48:14;2.95;;;2.10;;
56419;SDS011;42323;52.170;7.538;2023-06-04T03:50:41;3.78;;;1.90;;
56419;SDS011;42323;52.170;7.538;2023-06-04T03:53:07;3.53;;;2.17;;
56419;SDS011;42323;52.170;7.538;2023-06-04T03:55:34;5.53;;;2.50;;
56419;SDS011;42323;52.170;7.538;2023-06-04T03:58:01;3.50;;;2.13;;
56419;SDS011;42323;52.170;7.538;2023-06-04T04:00:28;2.97;;;2.22;;
56419;SDS011;42323;52.170;7.538;2023-06-04T04:02:54;3.63;;;2.38;;
56419;SDS011;42323;52.170;7.538;2023-06-04T04:05:23;3.15;;;2.13;;
56419;SDS011;42323;52.170;7.538;2023-06-04T04:07:49;4.53;;;2.40;;
56419;SDS011;42323;52.170;7.538;2023-06-04T04:10:16;3.13;;;2.30;;
56419;SDS011;42323;52.170;7.538;2023-06-04T04:12:42;3.97;;;2.40;;
56419;SDS011;42323;52.170;7.538;2023-06-04T04:15:09;3.40;;;2.10;;
56419;SDS011;42323;52.170;7.538;2023-06-04T04:17:36;3.75;;;2.35;;
56419;SDS011;42323;52.170;7.538;2023-06-04T04:20:03;3.67;;;2.20;;
56419;SDS011;42323;52.170;7.538;2023-06-04T04:22:31;3.30;;;2.30;;
56419;SDS011;42323;52.170;7.538;2023-06-04T04:24:59;4.03;;;2.30;;
56419;SDS011;42323;52.170;7.538;2023-06-04T04:27:27;4.80;;;2.40;;
56419;SDS011;42323;52.170;7.538;2023-06-04T04:29:56;4.90;;;2.40;;
56419;SDS011;42323;52.170;7.538;2023-06-04T04:32:26;4.70;;;2.65;;
56419;SDS011;42323;52.170;7.538;2023-06-04T04:34:53;4.05;;;2.17;;
56419;SDS011;42323;52.170;7.538;2023-06-04T04:37:21;3.80;;;2.37;;
56419;SDS011;42323;52.170;7.538;2023-06-04T04:39:48;4.00;;;2.60;;
56419;SDS011;42323;52.170;7.538;2023-06-04T04:42:18;4.22;;;2.60;;
56419;SDS011;42323;52.170;7.538;2023-06-04T04:44:45;4.80;;;2.45;;
56419;SDS011;42323;52.170;7.538;2023-06-04T04:47:14;3.88;;;2.30;;
56419;SDS011;42323;52.170;7.538;2023-06-04T04:49:41;3.92;;;2.40;;
56419;SDS011;42323;52.170;7.538;2023-06-04T04:52:08;3.80;;;2.22;;
56419;SDS011;42323;52.170;7.538;2023-06-04T04:54:35;3.70;;;2.55;;
56419;SDS011;42323;52.170;7.538;2023-06-04T04:57:01;3.53;;;2.28;;
56419;SDS011;42323;52.170;7.538;2023-06-04T04:59:38;4.40;;;2.60;;
56419;SDS011;42323;52.170;7.538;2023-06-04T05:02:05;6.30;;;2.50;;
56419;SDS011;42323;52.170;7.538;2023-06-04T05:04:32;4.85;;;2.50;;
56419;SDS011;42323;52.170;7.538;2023-06-04T05:06:58;4.07;;;2.50;;
56419;SDS011;42323;52.170;7.538;2023-06-04T05:09:25;4.67;;;2.60;;
56419;SDS011;42323;52.170;7.538;2023-06-04T05:11:52;4.05;;;2.50;;
56419;SDS011;42323;52.170;7.538;2023-06-04T05:14:18;3.53;;;2.20;;
56419;SDS011;42323;52.170;7.538;2023-06-04T05:16:45;5.07;;;2.88;;
56419;SDS011;42323;52.170;7.538;2023-06-04T05:19:11;4.70;;;2.30;;
56419;SDS011;42323;52.170;7.538;2023-06-04T05:21:38;3.80;;;2.30;;
56419;SDS011;42323;52.170;7.538;2023-06-04T05:24:05;4.63;;;2.40;;
56419;SDS011;42323;52.170;7.538;2023-06-04T05:26:32;4.10;;;2.40;;
56419;SDS011;42323;52.170;7.538;2023-06-04T05:28:59;3.60;;;2.22;;
56419;SDS011;42323;52.170;7.538;2023-06-04T05:31:26;3.63;;;2.40;;
56419;SDS011;42323;52.170;7.538;2023-06-04T05:33:53;4.28;;;2.38;;
56419;SDS011;42323;52.170;7.538;2023-06-04T05:36:19;3.67;;;2.20;;
56419;SDS011;42323;52.170;7.538;2023-06-04T05:38:46;2.85;;;2.22;;
56419;SDS011;42323;52.170;7.538;2023-06-04T05:41:12;4.93;;;2.33;;
56419;SDS011;42323;52.170;7.538;2023-06-04T05:43:39;4.80;;;2.60;;
56419;SDS011;42323;52.170;7.538;2023-06-04T05:46:06;3.63;;;2.05;;
56419;SDS011;42323;52.170;7.538;2023-06-04T05:48:34;4.68;;;2.20;;
56419;SDS011;42323;52.170;7.538;2023-06-04T05:51:00;2.80;;;2.00;;
56419;SDS011;42323;52.170;7.538;2023-06-04T05:53:27;4.22;;;2.10;;
56419;SDS011;42323;52.170;7.538;2023-06-04T05:55:53;3.57;;;2.10;;
56419;SDS011;42323;52.170;7.538;2023-06-04T05:58:20;4.10;;;2.20;;
56419;SDS011;42323;52.170;7.538;2023-06-04T06:00:46;3.72;;;2.00;;
56419;SDS011;42323;52.170;7.538;2023-06-04T06:03:14;3.97;;;1.80;;
56419;SDS011;42323;52.170;7.538;2023-06-04T06:05:43;3.90;;;1.93;;
56419;SDS011;42323;52.170;7.538;2023-06-04T06:08:09;2.20;;;1.60;;
56419;SDS011;42323;52.170;7.538;2023-06-04T06:10:36;2.60;;;1.70;;
56419;SDS011;42323;52.170;7.538;2023-06-04T06:13:03;2.60;;;1.80;;
56419;SDS011;42323;52.170;7.538;2023-06-04T06:15:29;2.67;;;1.42;;
56419;SDS011;42323;52.170;7.538;2023-06-04T06:17:56;3.42;;;1.60;;
56419;SDS011;42323;52.170;7.538;2023-06-04T06:20:22;3.55;;;1.60;;
56419;SDS011;42323;52.170;7.538;2023-06-04T06:22:50;3.80;;;1.70;;
56419;SDS011;42323;52.170;7.538;2023-06-04T06:25:17;2.72;;;1.52;;
56419;SDS011;42323;52.170;7.538;2023-06-04T06:27:44;2.15;;;1.40;;
56419;SDS011;42323;52.170;7.538;2023-06-04T06:30:11;3.00;;;1.40;;
56419;SDS011;42323;52.170;7.538;2023-06-04T06:32:38;2.88;;;1.40;;
56419;SDS011;42323;52.170;7.538;2023-06-04T06:35:05;2.25;;;1.40;;
56419;SDS011;42323;52.170;7.538;2023-06-04T06:37:32;2.63;;;1.58;;
56419;SDS011;42323;52.170;7.538;2023-06-04T06:39:58;2.85;;;1.60;;
56419;SDS011;42323;52.170;7.538;2023-06-04T06:42:25;2.35;;;1.50;;
56419;SDS011;42323;52.170;7.538;2023-06-04T06:44:52;2.67;;;1.38;;
56419;SDS011;42323;52.170;7.538;2023-06-04T06:47:18;2.55;;;1.40;;
56419;SDS011;42323;52.170;7.538;2023-06-04T06:49:45;3.03;;;1.25;;
56419;SDS011;42323;52.170;7.538;2023-06-04T06:52:12;2.50;;;1.45;;
56419;SDS011;42323;52.170;7.538;2023-06-04T06:54:38;3.88;;;1.50;;
56419;SDS011;42323;52.170;7.538;2023-06-04T06:57:05;1.88;;;1.20;;
56419;SDS011;42323;52.170;7.538;2023-06-04T06:59:35;2.75;;;1.27;;
56419;SDS011;42323;52.170;7.538;2023-06-04T07:02:02;1.95;;;1.17;;
56419;SDS011;42323;52.170;7.538;2023-06-04T07:04:29;2.30;;;1.20;;
56419;SDS011;42323;52.170;7.538;2023-06-04T07:06:55;2.13;;;1.27;;
56419;SDS011;42323;52.170;7.538;2023-06-04T07:09:22;3.17;;;1.48;;
56419;SDS011;42323;52.170;7.538;2023-06-04T07:11:48;2.55;;;1.20;;
56419;SDS011;42323;52.170;7.538;2023-06-04T07:14:15;2.60;;;1.30;;
56419;SDS011;42323;52.170;7.538;2023-06-04T07:16:41;2.80;;;1.35;;
56419;SDS011;42323;52.170;7.538;2023-06-04T07:19:08;1.97;;;1.17;;
56419;SDS011;42323;52.170;7.538;2023-06-04T07:21:35;2.17;;;1.23;;
56419;SDS011;42323;52.170;7.538;2023-06-04T07:24:02;2.80;;;1.30;;
56419;SDS011;42323;52.170;7.538;2023-06-04T07:26:28;2.60;;;1.20;;
56419;SDS011;42323;52.170;7.538;2023-06-04T07:28:59;2.90;;;1.30;;
56419;SDS011;42323;52.170;7.538;2023-06-04T07:31:25;2.05;;;1.15;;
56419;SDS011;42323;52.170;7.538;2023-06-04T07:33:52;3.30;;;1.30;;
56419;SDS011;42323;52.170;7.538;2023-06-04T07:36:19;2.65;;;1.10;;
56419;SDS011;42323;52.170;7.538;2023-06-04T07:38:46;2.15;;;1.10;;
56419;SDS011;42323;52.170;7.538;2023-06-04T07:41:13;1.90;;;1.38;;
56419;SDS011;42323;52.170;7.538;2023-06-04T07:43:40;1.95;;;1.13;;
56419;SDS011;42323;52.170;7.538;2023-06-04T07:46:07;1.95;;;1.10;;
56419;SDS011;42323;52.170;7.538;2023-06-04T07:48:33;2.30;;;1.20;;
56419;SDS011;42323;52.170;7.538;2023-06-04T07:51:00;1.70;;;1.20;;
56419;SDS011;42323;52.170;7.538;2023-06-04T07:53:28;1.75;;;1.00;;
56419;SDS011;42323;52.170;7.538;2023-06-04T07:55:54;2.28;;;1.08;;
56419;SDS011;42323;52.170;7.538;2023-06-04T07:58:21;2.17;;;1.00;;
56419;SDS011;42323;52.170;7.538;2023-06-04T08:00:48;2.03;;;1.02;;
56419;SDS011;42323;52.170;7.538;2023-06-04T08:10:49;1.60;;;1.00;;
56419;SDS011;42323;52.170;7.538;2023-06-04T08:13:15;2.33;;;1.10;;
56419;SDS011;42323;52.170;7.538;2023-06-04T08:19:29;1.98;;;1.15;;
56419;SDS011;42323;52.170;7.538;2023-06-04T08:21:55;2.60;;;1.00;;
56419;SDS011;42323;52.170;7.538;2023-06-04T08:24:22;2.17;;;0.90;;
56419;SDS011;42323;52.170;7.538;2023-06-04T08:26:48;2.20;;;1.00;;
56419;SDS011;42323;52.170;7.538;2023-06-04T08:29:16;1.50;;;1.00;;
56419;SDS011;42323;52.170;7.538;2023-06-04T08:31:43;1.80;;;1.20;;
56419;SDS011;42323;52.170;7.538;2023-06-04T08:34:09;1.73;;;1.00;;
56419;SDS011;42323;52.170;7.538;2023-06-04T08:36:36;2.03;;;1.02;;
56419;SDS011;42323;52.170;7.538;2023-06-04T08:39:03;2.72;;;1.20;;
56419;SDS011;42323;52.170;7.538;2023-06-04T08:44:20;1.55;;;0.90;;
56419;SDS011;42323;52.170;7.538;2023-06-04T08:46:52;1.67;;;0.80;;
56419;SDS011;42323;52.170;7.538;2023-06-04T08:49:23;2.78;;;0.80;;
56419;SDS011;42323;52.170;7.538;2023-06-04T08:51:51;1.48;;;1.00;;
56419;SDS011;42323;52.170;7.538;2023-06-04T08:54:18;1.27;;;0.90;;
56419;SDS011;42323;52.170;7.538;2023-06-04T08:56:44;1.98;;;0.82;;
56419;SDS011;42323;52.170;7.538;2023-06-04T08:59:12;1.73;;;0.88;;
56419;SDS011;42323;52.170;7.538;2023-06-04T09:01:40;1.10;;;0.80;;
56419;SDS011;42323;52.170;7.538;2023-06-04T09:04:10;1.10;;;0.77;;
56419;SDS011;42323;52.170;7.538;2023-06-04T09:06:38;1.88;;;0.90;;
56419;SDS011;42323;52.170;7.538;2023-06-04T09:09:06;2.00;;;0.95;;
56419;SDS011;42323;52.170;7.538;2023-06-04T09:11:37;2.38;;;0.95;;
56419;SDS011;42323;52.170;7.538;2023-06-04T09:14:08;1.63;;;0.90;;
56419;SDS011;42323;52.170;7.538;2023-06-04T09:19:10;1.30;;;0.67;;
56419;SDS011;42323;52.170;7.538;2023-06-04T09:21:55;1.70;;;0.80;;
56419;SDS011;42323;52.170;7.538;2023-06-04T09:24:23;1.38;;;0.90;;
56419;SDS011;42323;52.170;7.538;2023-06-04T09:26:51;1.40;;;0.80;;
56419;SDS011;42323;52.170;7.538;2023-06-04T09:29:18;1.45;;;0.90;;
56419;SDS011;42323;52.170;7.538;2023-06-04T09:31:47;2.25;;;0.77;;
56419;SDS011;42323;52.170;7.538;2023-06-04T09:34:29;1.77;;;0.80;;
56419;SDS011;42323;52.170;7.538;2023-06-04T09:36:57;1.43;;;0.80;;
56419;SDS011;42323;52.170;7.538;2023-06-04T09:39:24;1.45;;;0.70;;
56419;SDS011;42323;52.170;7.538;2023-06-04T09:41:57;1.30;;;0.70;;
56419;SDS011;42323;52.170;7.538;2023-06-04T09:44:26;1.17;;;0.80;;
56419;SDS011;42323;52.170;7.538;2023-06-04T09:46:57;1.75;;;0.80;;
56419;SDS011;42323;52.170;7.538;2023-06-04T09:49:24;2.17;;;0.80;;
56419;SDS011;42323;52.170;7.538;2023-06-04T09:51:52;1.45;;;0.80;;
56419;SDS011;42323;52.170;7.538;2023-06-04T09:54:19;1.60;;;0.88;;
56419;SDS011;42323;52.170;7.538;2023-06-04T09:56:46;2.00;;;0.90;;
56419;SDS011;42323;52.170;7.538;2023-06-04T09:59:12;1.35;;;0.90;;
56419;SDS011;42323;52.170;7.538;2023-06-04T10:01:40;1.23;;;0.87;;
56419;SDS011;42323;52.170;7.538;2023-06-04T10:04:08;2.05;;;0.93;;
56419;SDS011;42323;52.170;7.538;2023-06-04T10:06:38;2.80;;;0.90;;
56419;SDS011;42323;52.170;7.538;2023-06-04T10:09:06;1.50;;;0.70;;
56419;SDS011;42323;52.170;7.538;2023-06-04T10:11:40;1.25;;;0.80;;
56419;SDS011;42323;52.170;7.538;2023-06-04T10:14:19;1.67;;;0.70;;
56419;SDS011;42323;52.170;7.538;2023-06-04T10:16:48;3.03;;;1.10;;
56419;SDS011;42323;52.170;7.538;2023-06-04T10:19:16;2.00;;;0.90;;
56419;SDS011;42323;52.170;7.538;2023-06-04T10:21:44;2.03;;;0.90;;
56419;SDS011;42323;52.170;7.538;2023-06-04T10:24:12;1.47;;;0.90;;
56419;SDS011;42323;52.170;7.538;2023-06-04T10:26:40;1.85;;;0.82;;
56419;SDS011;42323;52.170;7.538;2023-06-04T10:29:08;1.48;;;0.80;;
56419;SDS011;42323;52.170;7.538;2023-06-04T10:31:39;1.53;;;0.83;;
56419;SDS011;42323;52.170;7.538;2023-06-04T10:34:07;1.50;;;0.98;;
56419;SDS011;42323;52.170;7.538;2023-06-04T10:39:54;1.70;;;0.80;;
56419;SDS011;42323;52.170;7.538;2023-06-04T10:42:24;1.67;;;0.85;;
56419;SDS011;42323;52.170;7.538;2023-06-04T10:44:52;1.70;;;0.80;;
56419;SDS011;42323;52.170;7.538;2023-06-04T10:47:26;1.88;;;0.98;;
56419;SDS011;42323;52.170;7.538;2023-06-04T10:50:06;1.48;;;0.80;;
56419;SDS011;42323;52.170;7.538;2023-06-04T10:52:35;1.85;;;0.68;;
56419;SDS011;42323;52.170;7.538;2023-06-04T10:55:08;3.75;;;0.90;;
56419;SDS011;42323;52.170;7.538;2023-06-04T10:57:35;2.50;;;0.85;;
56419;SDS011;42323;52.170;7.538;2023-06-04T11:00:02;1.53;;;1.00;;
56419;SDS011;42323;52.170;7.538;2023-06-04T11:02:32;1.58;;;0.80;;
56419;SDS011;42323;52.170;7.538;2023-06-04T11:05:02;1.52;;;0.70;;
56419;SDS011;42323;52.170;7.538;2023-06-04T11:07:44;1.30;;;0.80;;
56419;SDS011;42323;52.170;7.538;2023-06-04T11:10:12;1.58;;;0.80;;
56419;SDS011;42323;52.170;7.538;2023-06-04T11:15:17;0.82;;;0.60;;
56419;SDS011;42323;52.170;7.538;2023-06-04T11:17:53;1.50;;;0.70;;
56419;SDS011;42323;52.170;7.538;2023-06-04T11:20:26;2.50;;;0.80;;
56419;SDS011;42323;52.170;7.538;2023-06-04T11:22:54;1.30;;;0.70;;
56419;SDS011;42323;52.170;7.538;2023-06-04T11:25:25;1.25;;;0.90;;
56419;SDS011;42323;52.170;7.538;2023-06-04T11:27:55;1.33;;;0.85;;
56419;SDS011;42323;52.170;7.538;2023-06-04T11:30:22;2.13;;;0.80;;
56419;SDS011;42323;52.170;7.538;2023-06-04T11:32:59;1.65;;;0.80;;
56419;SDS011;42323;52.170;7.538;2023-06-04T11:35:27;1.20;;;0.70;;
56419;SDS011;42323;52.170;7.538;2023-06-04T11:37:54;1.17;;;0.70;;
56419;SDS011;42323;52.170;7.538;2023-06-04T11:40:22;1.80;;;0.70;;
56419;SDS011;42323;52.170;7.538;2023-06-04T11:42:49;2.50;;;0.77;;
56419;SDS011;42323;52.170;7.538;2023-06-04T11:45:17;1.80;;;0.73;;
56419;SDS011;42323;52.170;7.538;2023-06-04T11:47:52;2.10;;;0.90;;
56419;SDS011;42323;52.170;7.538;2023-06-04T11:50:20;1.90;;;0.80;;
56419;SDS011;42323;52.170;7.538;2023-06-04T11:52:48;1.60;;;0.70;;
56419;SDS011;42323;52.170;7.538;2023-06-04T11:55:15;1.25;;;0.73;;
56419;SDS011;42323;52.170;7.538;2023-06-04T11:57:49;1.40;;;0.70;;
56419;SDS011;42323;52.170;7.538;2023-06-04T12:00:17;1.58;;;0.75;;
56419;SDS011;42323;52.170;7.538;2023-06-04T12:02:52;2.75;;;0.90;;
56419;SDS011;42323;52.170;7.538;2023-06-04T12:05:21;1.55;;;0.77;;
56419;SDS011;42323;52.170;7.538;2023-06-04T12:07:50;1.10;;;0.70;;
56419;SDS011;42323;52.170;7.538;2023-06-04T12:10:21;1.50;;;0.90;;
56419;SDS011;42323;52.170;7.538;2023-06-04T12:12:55;0.90;;;0.70;;
56419;SDS011;42323;52.170;7.538;2023-06-04T12:15:22;1.23;;;0.70;;
56419;SDS011;42323;52.170;7.538;2023-06-04T12:17:49;2.22;;;0.80;;
56419;SDS011;42323;52.170;7.538;2023-06-04T12:20:17;1.30;;;0.73;;
56419;SDS011;42323;52.170;7.538;2023-06-04T12:22:46;2.03;;;0.80;;
56419;SDS011;42323;52.170;7.538;2023-06-04T12:25:23;2.58;;;0.70;;
56419;SDS011;42323;52.170;7.538;2023-06-04T12:27:54;1.70;;;0.80;;
56419;SDS011;42323;52.170;7.538;2023-06-04T12:30:20;1.67;;;0.70;;
56419;SDS011;42323;52.170;7.538;2023-06-04T12:32:48;2.00;;;0.80;;
56419;SDS011;42323;52.170;7.538;2023-06-04T12:35:15;2.72;;;1.13;;
56419;SDS011;42323;52.170;7.538;2023-06-04T12:37:44;2.40;;;1.00;;
56419;SDS011;42323;52.170;7.538;2023-06-04T12:40:11;3.70;;;0.90;;
56419;SDS011;42323;52.170;7.538;2023-06-04T12:42:38;1.95;;;0.90;;
56419;SDS011;42323;52.170;7.538;2023-06-04T12:45:05;1.88;;;1.00;;
56419;SDS011;42323;52.170;7.538;2023-06-04T12:47:32;1.35;;;0.82;;
56419;SDS011;42323;52.170;7.538;2023-06-04T12:49:58;1.13;;;0.75;;
56419;SDS011;42323;52.170;7.538;2023-06-04T12:52:26;1.40;;;0.73;;
56419;SDS011;42323;52.170;7.538;2023-06-04T12:54:53;1.60;;;0.82;;
56419;SDS011;42323;52.170;7.538;2023-06-04T12:57:20;1.83;;;0.90;;
56419;SDS011;42323;52.170;7.538;2023-06-04T12:59:46;1.40;;;0.90;;
56419;SDS011;42323;52.170;7.538;2023-06-04T13:02:13;2.13;;;0.95;;
56419;SDS011;42323;52.170;7.538;2023-06-04T13:04:39;1.38;;;0.82;;
56419;SDS011;42323;52.170;7.538;2023-06-04T13:07:10;1.77;;;0.90;;
56419;SDS011;42323;52.170;7.538;2023-06-04T13:09:37;1.27;;;0.83;;
56419;SDS011;42323;52.170;7.538;2023-06-04T13:12:03;1.80;;;1.00;;
56419;SDS011;42323;52.170;7.538;2023-06-04T13:14:32;1.85;;;0.82;;
56419;SDS011;42323;52.170;7.538;2023-06-04T13:16:59;1.73;;;0.93;;
56419;SDS011;42323;52.170;7.538;2023-06-04T13:19:34;1.52;;;0.90;;
56419;SDS011;42323;52.170;7.538;2023-06-04T13:22:01;1.30;;;0.85;;
56419;SDS011;42323;52.170;7.538;2023-06-04T13:24:28;1.30;;;0.93;;
56419;SDS011;42323;52.170;7.538;2023-06-04T13:26:54;1.50;;;0.90;;
56419;SDS011;42323;52.170;7.538;2023-06-04T13:29:22;1.85;;;0.82;;
56419;SDS011;42323;52.170;7.538;2023-06-04T13:31:49;1.93;;;1.00;;
56419;SDS011;42323;52.170;7.538;2023-06-04T13:34:16;3.17;;;0.80;;
56419;SDS011;42323;52.170;7.538;2023-06-04T13:36:53;1.60;;;0.90;;
56419;SDS011;42323;52.170;7.538;2023-06-04T13:39:21;2.25;;;1.00;;
56419;SDS011;42323;52.170;7.538;2023-06-04T13:41:47;1.75;;;0.80;;
56419;SDS011;42323;52.170;7.538;2023-06-04T13:44:14;1.90;;;1.10;;
56419;SDS011;42323;52.170;7.538;2023-06-04T13:46:41;1.70;;;1.20;;
56419;SDS011;42323;52.170;7.538;2023-06-04T13:49:08;2.87;;;0.80;;
56419;SDS011;42323;52.170;7.538;2023-06-04T13:51:35;1.55;;;0.88;;
56419;SDS011;42323;52.170;7.538;2023-06-04T13:54:02;1.10;;;0.80;;
56419;SDS011;42323;52.170;7.538;2023-06-04T13:56:29;1.85;;;0.82;;
56419;SDS011;42323;52.170;7.538;2023-06-04T13:58:55;1.50;;;0.85;;
56419;SDS011;42323;52.170;7.538;2023-06-04T14:01:22;1.90;;;0.90;;
56419;SDS011;42323;52.170;7.538;2023-06-04T14:03:49;1.48;;;0.75;;
56419;SDS011;42323;52.170;7.538;2023-06-04T14:06:16;1.70;;;0.90;;
56419;SDS011;42323;52.170;7.538;2023-06-04T14:08:43;1.35;;;0.80;;
56419;SDS011;42323;52.170;7.538;2023-06-04T14:11:09;1.60;;;0.73;;
56419;SDS011;42323;52.170;7.538;2023-06-04T14:13:37;2.00;;;1.10;;
56419;SDS011;42323;52.170;7.538;2023-06-04T14:16:04;1.40;;;0.80;;
56419;SDS011;42323;52.170;7.538;2023-06-04T14:18:31;1.42;;;1.08;;
56419;SDS011;42323;52.170;7.538;2023-06-04T14:20:58;1.83;;;1.00;;
56419;SDS011;42323;52.170;7.538;2023-06-04T14:23:25;1.35;;;0.90;;
56419;SDS011;42323;52.170;7.538;2023-06-04T14:25:51;1.37;;;0.80;;
56419;SDS011;42323;52.170;7.538;2023-06-04T14:28:18;2.00;;;0.90;;
56419;SDS011;42323;52.170;7.538;2023-06-04T14:30:47;1.17;;;0.80;;
56419;SDS011;42323;52.170;7.538;2023-06-04T14:33:14;1.40;;;0.90;;
56419;SDS011;42323;52.170;7.538;2023-06-04T14:35:40;1.27;;;0.80;;
56419;SDS011;42323;52.170;7.538;2023-06-04T14:38:13;2.05;;;1.10;;
56419;SDS011;42323;52.170;7.538;2023-06-04T14:40:40;1.60;;;0.80;;
56419;SDS011;42323;52.170;7.538;2023-06-04T14:43:10;1.40;;;0.80;;
56419;SDS011;42323;52.170;7.538;2023-06-04T14:45:37;2.13;;;0.93;;
56419;SDS011;42323;52.170;7.538;2023-06-04T14:48:05;1.20;;;0.80;;
56419;SDS011;42323;52.170;7.538;2023-06-04T14:50:41;1.55;;;1.00;;
56419;SDS011;42323;52.170;7.538;2023-06-04T14:53:08;2.60;;;0.90;;
56419;SDS011;42323;52.170;7.538;2023-06-04T14:55:34;1.55;;;0.90;;
56419;SDS011;42323;52.170;7.538;2023-06-04T14:58:03;1.55;;;1.00;;
56419;SDS011;42323;52.170;7.538;2023-06-04T15:00:30;1.45;;;1.00;;
56419;SDS011;42323;52.170;7.538;2023-06-04T15:02:57;1.10;;;0.80;;
56419;SDS011;42323;52.170;7.538;2023-06-04T15:05:26;1.88;;;1.00;;
56419;SDS011;42323;52.170;7.538;2023-06-04T15:07:53;1.70;;;1.20;;
56419;SDS011;42323;52.170;7.538;2023-06-04T15:10:19;1.83;;;1.30;;
56419;SDS011;42323;52.170;7.538;2023-06-04T15:12:46;1.20;;;0.90;;
56419;SDS011;42323;52.170;7.538;2023-06-04T15:15:13;1.42;;;0.80;;
56419;SDS011;42323;52.170;7.538;2023-06-04T15:17:39;1.50;;;0.85;;